Time;durP1;ratioP1;P1;durP2;ratioP2;P2;SDS_P1;SDS_P2;PMS_P1;PMS_P2;Temp;Humidity;BMP_temperature;BMP_pressure;BME280_temperature;BME280_humidity;BME280_pressure;Samples;Min_cycle;Max_cycle;Signal;HPM_P1;HPM_P2
2021/12/05 00:22:00;;;;;;;0.70;0.60;;;5.00;99.90;;;;;;5013198;28;20431;-71
2021/12/05 00:24:29;;;;;;;0.70;0.47;;;5.00;99.90;;;;;;5013118;28;20931;-71
2021/12/05 00:27:03;;;;;;;0.70;0.40;;;5.00;99.90;;;;;;5012775;28;20828;-71
2021/12/05 00:32:22;;;;;;;0.70;0.40;;;5.00;99.90;;;;;;5012813;28;20418;-71
2021/12/05 00:43:19;;;;;;;0.70;0.50;;;4.90;99.90;;;;;;5012974;28;20923;-71
2021/12/05 00:51:34;;;;;;;0.70;0.50;;;4.80;99.90;;;;;;5012569;28;20419;-71
2021/12/05 01:04:57;;;;;;;0.70;0.50;;;4.60;99.90;;;;;;5012762;28;20445;-71
2021/12/05 01:10:35;;;;;;;0.70;0.50;;;4.60;99.90;;;;;;5012386;28;20398;-71
2021/12/05 01:15:44;;;;;;;0.70;0.50;;;4.60;99.90;;;;;;5011956;28;20410;-71
2021/12/05 01:18:16;;;;;;;1.10;1.00;;;4.60;99.90;;;;;;5012174;28;20399;-71
2021/12/05 01:20:53;;;;;;;0.70;0.50;;;4.60;99.90;;;;;;5012162;28;20430;-71
2021/12/05 01:23:34;;;;;;;0.70;0.50;;;4.60;99.90;;;;;;5012291;28;20414;-71
2021/12/05 01:26:05;;;;;;;0.63;0.50;;;4.50;99.90;;;;;;5011905;28;20406;-71
2021/12/05 01:31:15;;;;;;;0.70;0.50;;;4.50;99.90;;;;;;5011773;28;20451;-71
2021/12/05 01:36:46;;;;;;;0.70;0.50;;;4.40;99.90;;;;;;5011390;28;20407;-71
2021/12/05 01:39:32;;;;;;;0.80;0.80;;;4.40;99.90;;;;;;5012077;28;20415;-71
2021/12/05 01:47:28;;;;;;;0.70;0.40;;;4.40;99.90;;;;;;5011973;28;20418;-71
2021/12/05 01:58:05;;;;;;;0.70;0.50;;;4.50;99.90;;;;;;5016018;28;20976;-71
2021/12/05 02:09:07;;;;;;;0.70;0.40;;;4.50;99.90;;;;;;5015635;28;20966;-71
2021/12/05 02:11:49;;;;;;;2.30;2.20;;;4.50;99.90;;;;;;5015333;28;20505;-71
2021/12/05 02:31:11;;;;;;;0.70;0.50;;;4.30;99.90;;;;;;5015137;28;20426;-71
2021/12/05 02:39:05;;;;;;;0.70;0.50;;;4.20;99.90;;;;;;5015168;28;20173;-71
2021/12/05 02:41:35;;;;;;;0.70;0.50;;;4.20;99.90;;;;;;5014831;28;20427;-71
2021/12/05 02:44:10;;;;;;;0.70;0.40;;;4.20;99.90;;;;;;5014935;28;20457;-71
2021/12/05 02:46:36;;;;;;;0.70;0.50;;;4.10;99.90;;;;;;5014523;28;20411;-71
2021/12/05 02:49:05;;;;;;;0.70;0.40;;;4.10;99.90;;;;;;5014666;28;20951;-71
2021/12/05 02:51:33;;;;;;;0.70;0.50;;;4.10;99.90;;;;;;5014724;28;20982;-71
2021/12/05 02:54:09;;;;;;;0.70;0.50;;;4.10;99.90;;;;;;5014634;28;20406;-71
2021/12/05 02:56:40;;;;;;;0.70;0.43;;;4.00;99.90;;;;;;5014321;28;20499;-71
2021/12/05 02:59:57;;;;;;;0.70;0.50;;;4.00;99.90;;;;;;5014587;28;20442;-71
2021/12/05 03:02:08;;;;;;;0.70;0.50;;;3.90;99.90;;;;;;5012840;28;20435;-71
2021/12/05 03:04:36;;;;;;;0.70;0.40;;;3.90;99.90;;;;;;5014406;28;20410;-71
2021/12/05 03:07:06;;;;;;;0.67;0.50;;;3.90;99.90;;;;;;5014225;28;20403;-71
2021/12/05 03:09:33;;;;;;;0.70;0.50;;;3.90;99.90;;;;;;5014329;28;20458;-71
2021/12/05 03:12:00;;;;;;;0.70;0.47;;;3.90;99.90;;;;;;5014245;28;20463;-71
2021/12/05 03:14:26;;;;;;;0.70;0.40;;;3.90;99.90;;;;;;5012998;28;20474;-71
2021/12/05 03:16:52;;;;;;;0.70;0.60;;;3.90;99.90;;;;;;5012709;28;20429;-71
2021/12/05 03:19:18;;;;;;;0.70;0.63;;;3.90;99.90;;;;;;5014161;28;20494;-71
2021/12/05 03:21:44;;;;;;;0.70;0.50;;;3.90;99.90;;;;;;5014213;28;20250;-71
2021/12/05 03:24:12;;;;;;;0.70;0.50;;;3.90;99.90;;;;;;5012921;28;20912;-71
2021/12/05 03:26:43;;;;;;;0.70;0.40;;;3.90;99.90;;;;;;5013757;28;20423;-71
2021/12/05 03:29:12;;;;;;;0.63;0.43;;;3.90;99.90;;;;;;5014007;28;20455;-71
2021/12/05 03:31:39;;;;;;;0.70;0.50;;;3.90;99.90;;;;;;5013976;28;20441;-71
2021/12/05 03:34:07;;;;;;;0.70;0.50;;;3.90;99.90;;;;;;5012749;28;20419;-71
2021/12/05 03:36:34;;;;;;;0.70;0.50;;;3.90;99.90;;;;;;5028967;28;20477;-71
2021/12/05 03:39:02;;;;;;;0.70;0.47;;;3.90;99.90;;;;;;5013884;28;20559;-71
2021/12/05 03:41:28;;;;;;;0.70;0.50;;;3.80;99.90;;;;;;5013678;28;20439;-71
2021/12/05 03:43:56;;;;;;;0.70;0.50;;;3.80;99.90;;;;;;5013812;28;20415;-71
2021/12/05 03:46:22;;;;;;;0.70;0.50;;;3.70;99.90;;;;;;5013413;28;20247;-71
2021/12/05 03:48:52;;;;;;;0.70;0.50;;;3.70;99.90;;;;;;5013669;28;20478;-71
2021/12/05 03:51:20;;;;;;;0.70;0.50;;;3.70;99.90;;;;;;5013408;28;20971;-71
2021/12/05 03:53:46;;;;;;;0.70;0.50;;;3.70;99.90;;;;;;5013481;28;20399;-71
2021/12/05 03:56:13;;;;;;;0.70;0.50;;;3.70;99.90;;;;;;5013085;28;20438;-71
2021/12/05 03:58:40;;;;;;;0.70;0.40;;;3.70;99.90;;;;;;5013557;28;20462;-71
2021/12/05 04:01:08;;;;;;;0.67;0.50;;;3.70;99.90;;;;;;5013398;28;20426;-71
2021/12/05 04:03:34;;;;;;;0.70;0.43;;;3.70;99.90;;;;;;5013391;28;20447;-71
2021/12/05 04:06:00;;;;;;;0.70;0.40;;;3.70;99.90;;;;;;5013071;28;20472;-71
2021/12/05 04:08:28;;;;;;;0.70;0.40;;;3.60;99.90;;;;;;5013272;28;20490;-71
2021/12/05 04:10:58;;;;;;;0.70;0.47;;;3.60;99.90;;;;;;5013144;28;20860;-71
2021/12/05 04:13:26;;;;;;;0.70;0.43;;;3.50;99.90;;;;;;5013201;28;20550;-71
2021/12/05 04:15:54;;;;;;;0.70;0.50;;;3.50;99.90;;;;;;5012532;28;20399;-71
2021/12/05 04:18:20;;;;;;;0.70;0.50;;;3.40;99.90;;;;;;5013153;28;20411;-71
2021/12/05 04:20:47;;;;;;;0.70;0.40;;;3.30;99.90;;;;;;5012956;28;20493;-71
2021/12/05 04:23:13;;;;;;;0.70;0.50;;;3.30;99.90;;;;;;5013147;28;20892;-71
2021/12/05 04:25:39;;;;;;;0.70;0.40;;;3.20;99.90;;;;;;5011446;28;20477;-71
2021/12/05 04:28:07;;;;;;;0.70;0.40;;;3.20;99.90;;;;;;5012975;28;20553;-71
2021/12/05 04:30:33;;;;;;;0.80;0.73;;;3.20;99.90;;;;;;5012926;28;20519;-71
2021/12/05 04:32:59;;;;;;;1.10;1.00;;;3.10;99.90;;;;;;5012923;28;20777;-71
2021/12/05 04:35:25;;;;;;;0.70;0.50;;;3.10;99.90;;;;;;5012604;28;20411;-71
2021/12/05 04:37:51;;;;;;;0.70;0.40;;;3.10;99.90;;;;;;5012832;28;20546;-71
2021/12/05 04:40:17;;;;;;;0.70;0.50;;;3.00;99.90;;;;;;5012719;28;20491;-71
2021/12/05 04:42:43;;;;;;;0.70;0.40;;;3.00;99.90;;;;;;5012679;28;20182;-71
2021/12/05 04:45:22;;;;;;;0.70;0.50;;;3.00;99.90;;;;;;5012515;28;20414;-71
2021/12/05 04:47:49;;;;;;;0.70;0.50;;;2.90;99.90;;;;;;5012459;28;20402;-71
2021/12/05 04:50:16;;;;;;;0.67;0.50;;;2.90;99.90;;;;;;5012595;28;20404;-71
2021/12/05 04:52:42;;;;;;;0.70;0.40;;;2.90;99.90;;;;;;5012612;28;20395;-71
2021/12/05 04:55:08;;;;;;;0.70;0.40;;;2.80;99.90;;;;;;5012196;28;20430;-71
2021/12/05 04:57:34;;;;;;;0.70;0.40;;;2.80;99.90;;;;;;5012508;28;20406;-71
2021/12/05 05:00:01;;;;;;;0.70;0.40;;;2.70;99.90;;;;;;5012566;28;20403;-71
2021/12/05 05:02:27;;;;;;;0.70;0.40;;;2.70;99.90;;;;;;5012331;28;20522;-71
2021/12/05 05:04:54;;;;;;;0.70;0.50;;;2.70;99.90;;;;;;5012184;28;20504;-71
2021/12/05 05:07:26;;;;;;;0.70;0.50;;;2.80;99.90;;;;;;5011081;28;20426;-71
2021/12/05 05:10:14;;;;;;;0.70;0.40;;;2.80;99.90;;;;;;5012356;28;21003;-71
2021/12/05 05:12:39;;;;;;;0.70;0.40;;;2.70;99.90;;;;;;5012040;28;20418;-71
2021/12/05 05:15:07;;;;;;;0.70;0.40;;;2.70;99.90;;;;;;5011933;28;20931;-71
2021/12/05 05:17:34;;;;;;;0.70;0.40;;;2.70;99.90;;;;;;5012032;28;20184;-71
2021/12/05 05:20:04;;;;;;;0.70;0.50;;;2.60;99.90;;;;;;5012196;28;20412;-71
2021/12/05 05:22:42;;;;;;;0.70;0.50;;;2.60;99.90;;;;;;5012195;28;20446;-71
2021/12/05 05:49:32;;;;;;;0.70;0.50;;;2.70;99.90;;;;;;5012025;28;20460;-71
2021/12/05 05:51:58;;;;;;;0.70;0.50;;;2.70;99.90;;;;;;5011989;28;20477;-71
2021/12/05 05:54:24;;;;;;;0.70;0.40;;;2.60;99.90;;;;;;5011844;28;20411;-71
2021/12/05 05:56:55;;;;;;;1.00;1.00;;;2.60;99.90;;;;;;5011503;28;20423;-71
2021/12/05 05:59:26;;;;;;;0.83;0.60;;;2.50;99.90;;;;;;5027004;28;20268;-71
2021/12/05 06:04:17;;;;;;;0.70;0.40;;;2.30;99.90;;;;;;5011920;28;20411;-71
2021/12/05 06:06:43;;;;;;;0.70;0.43;;;2.30;99.90;;;;;;5011616;28;20295;-71
2021/12/05 06:09:09;;;;;;;0.70;0.50;;;2.30;99.90;;;;;;5011723;28;20554;-71
2021/12/05 06:11:35;;;;;;;0.70;0.57;;;2.30;99.90;;;;;;5011708;28;20939;-71
2021/12/05 06:14:02;;;;;;;0.70;0.50;;;2.20;99.90;;;;;;5011761;28;20311;-71
2021/12/05 06:16:28;;;;;;;0.70;0.60;;;2.20;99.90;;;;;;5011319;28;20409;-71
2021/12/05 06:18:53;;;;;;;0.70;0.50;;;2.10;99.90;;;;;;5011644;28;20425;-71
2021/12/05 06:21:20;;;;;;;0.70;0.40;;;2.10;99.90;;;;;;5011615;28;20196;-71
2021/12/05 06:23:46;;;;;;;0.70;0.50;;;2.00;99.90;;;;;;5026717;28;20274;-71
2021/12/05 06:26:20;;;;;;;1.33;1.23;;;2.00;99.90;;;;;;5011340;28;20454;-71
2021/12/05 06:28:51;;;;;;;0.70;0.43;;;1.90;99.90;;;;;;5011589;28;20683;-71
2021/12/05 06:47:03;;;;;;;0.70;0.40;;;1.60;99.90;;;;;;5014825;28;20418;-71
2021/12/05 06:49:29;;;;;;;0.70;0.40;;;1.60;99.90;;;;;;5014806;28;20458;-71
2021/12/05 06:51:55;;;;;;;0.70;0.40;;;1.60;99.90;;;;;;5014610;28;20428;-71
2021/12/05 06:54:22;;;;;;;0.70;0.40;;;1.60;99.90;;;;;;5014714;28;20218;-71
2021/12/05 06:56:48;;;;;;;0.70;0.40;;;1.70;99.90;;;;;;5014290;28;20311;-71
2021/12/05 06:59:13;;;;;;;0.70;0.40;;;1.60;99.90;;;;;;5014658;28;20411;-71
2021/12/05 07:01:39;;;;;;;0.70;0.40;;;1.60;99.90;;;;;;5014524;28;20489;-71
2021/12/05 07:04:14;;;;;;;0.80;0.80;;;1.70;99.90;;;;;;5014615;28;20174;-71
2021/12/05 07:06:41;;;;;;;0.70;0.40;;;1.80;99.90;;;;;;5029518;28;20179;-71
2021/12/05 07:09:09;;;;;;;0.87;0.77;;;1.80;99.90;;;;;;5014396;28;20460;-71
2021/12/05 07:11:49;;;;;;;0.70;0.40;;;1.80;99.90;;;;;;5014239;28;20928;-71
2021/12/05 07:17:02;;;;;;;0.97;0.83;;;1.90;99.90;;;;;;5014012;28;20450;-71
2021/12/05 07:21:57;;;;;;;0.70;0.50;;;2.00;99.90;;;;;;5013952;28;20459;-71
2021/12/05 07:24:36;;;;;;;0.70;0.50;;;2.10;99.90;;;;;;5012802;28;20238;-71
2021/12/05 07:40:30;;;;;;;0.70;0.40;;;2.40;99.90;;;;;;5013827;28;20788;-71
2021/12/05 07:43:06;;;;;;;0.70;0.40;;;2.50;99.90;;;;;;5013753;28;20407;-71
2021/12/05 07:45:42;;;;;;;0.70;0.40;;;2.50;99.90;;;;;;5013510;28;20419;-71
2021/12/05 07:48:12;;;;;;;0.70;0.50;;;2.50;99.90;;;;;;5013169;28;20446;-71
2021/12/05 07:51:02;;;;;;;0.70;0.40;;;2.60;99.90;;;;;;5013589;28;20425;-71
2021/12/05 07:53:39;;;;;;;0.67;0.40;;;2.70;99.90;;;;;;5028836;28;20427;-71
2021/12/05 07:56:14;;;;;;;0.70;0.50;;;2.70;99.90;;;;;;5013108;28;20905;-71
2021/12/05 08:15:14;;;;;;;0.70;0.50;;;3.00;99.90;;;;;;5013567;28;20445;-71
2021/12/05 08:17:40;;;;;;;0.70;0.50;;;3.10;99.90;;;;;;5013432;28;20501;-71
2021/12/05 08:20:10;;;;;;;0.67;0.40;;;3.20;99.90;;;;;;5013009;28;20837;-71
2021/12/05 08:22:35;;;;;;;0.70;0.40;;;3.40;99.90;;;;;;5028304;28;20867;-71
2021/12/05 08:25:10;;;;;;;0.70;0.50;;;3.50;99.90;;;;;;5012112;28;20442;-71
2021/12/05 08:27:40;;;;;;;0.70;0.40;;;3.50;99.90;;;;;;5012715;28;20525;-71
2021/12/05 08:30:11;;;;;;;0.67;0.50;;;3.60;99.90;;;;;;5012501;28;20943;-71
2021/12/05 08:32:55;;;;;;;0.67;0.40;;;3.60;99.90;;;;;;5013088;28;20411;-71
2021/12/05 09:38:35;;;;;;;0.70;0.40;;;4.20;99.90;;;;;;5012100;28;20415;-70
2021/12/05 09:40:10;;;;;;;0.70;0.57;;;4.30;99.90;;;;;;5012290;28;20414;-71
2021/12/05 10:09:41;;;;;;;0.70;0.40;;;4.80;99.90;;;;;;5011989;28;20454;-70
2021/12/05 10:15:29;;;;;;;0.70;0.50;;;5.00;99.90;;;;;;5016176;28;20770;-70
2021/12/05 10:37:52;;;;;;;0.70;0.50;;;5.60;99.90;;;;;;5016997;28;20438;-71
2021/12/05 10:40:34;;;;;;;0.70;0.50;;;5.70;99.90;;;;;;5018506;28;20413;-71
2021/12/05 10:43:01;;;;;;;0.70;0.50;;;5.60;99.90;;;;;;5018706;28;20399;-72
2021/12/05 10:45:38;;;;;;;0.70;0.40;;;5.80;99.90;;;;;;5033560;28;20407;-72
2021/12/05 10:48:10;;;;;;;0.70;0.50;;;6.00;99.90;;;;;;5016473;28;20411;-71
2021/12/05 10:50:46;;;;;;;0.70;0.50;;;5.90;99.90;;;;;;5015369;28;20426;-72
2021/12/05 10:53:30;;;;;;;1.80;0.77;;;5.90;99.90;;;;;;5014770;28;20501;-71
2021/12/05 10:56:15;;;;;;;0.70;0.40;;;6.00;99.90;;;;;;5014349;28;20502;-71
2021/12/05 10:58:50;;;;;;;0.80;0.60;;;6.10;99.90;;;;;;5014631;28;20399;-71
2021/12/05 11:01:18;;;;;;;2.10;2.00;;;6.30;99.90;;;;;;5015848;28;20451;-71
2021/12/05 11:03:46;;;;;;;0.70;0.50;;;6.30;99.90;;;;;;5016196;28;20442;-71
2021/12/05 11:06:29;;;;;;;0.70;0.50;;;6.50;99.90;;;;;;5014620;28;20411;-71
2021/12/05 11:09:06;;;;;;;0.70;0.50;;;6.50;99.90;;;;;;5013243;28;20541;-71
2021/12/05 11:11:32;;;;;;;0.70;0.50;;;6.70;99.90;;;;;;5014596;28;20447;-71
2021/12/05 11:14:01;;;;;;;0.70;0.50;;;6.70;99.90;;;;;;5014718;28;20522;-71
2021/12/05 11:16:52;;;;;;;0.70;0.50;;;6.80;99.90;;;;;;5014069;28;20407;-72
2021/12/05 11:19:24;;;;;;;0.70;0.43;;;6.60;99.90;;;;;;5014334;28;20411;-71
2021/12/05 11:21:57;;;;;;;0.70;0.50;;;6.60;99.90;;;;;;5013515;28;20493;-71
2021/12/05 11:24:36;;;;;;;0.70;0.40;;;6.60;99.90;;;;;;5029502;28;20415;-71
2021/12/05 11:27:04;;;;;;;0.70;0.50;;;6.70;99.90;;;;;;5014281;28;20434;-71
2021/12/05 11:29:44;;;;;;;0.70;0.50;;;6.70;99.90;;;;;;5014289;28;20530;-71
2021/12/05 11:32:16;;;;;;;0.70;0.50;;;7.10;99.90;;;;;;5013892;28;20415;-71
2021/12/05 11:34:42;;;;;;;0.70;0.50;;;7.40;99.90;;;;;;5014002;28;20458;-71
2021/12/05 11:37:07;;;;;;;0.70;0.60;;;8.20;99.90;;;;;;5013673;28;20408;-72
2021/12/05 11:39:33;;;;;;;0.70;0.50;;;9.00;99.90;;;;;;5013909;28;20405;-72
2021/12/05 11:41:58;;;;;;;1.33;1.20;;;9.40;99.90;;;;;;5013893;28;20279;-71
2021/12/05 11:44:25;;;;;;;0.70;0.50;;;9.20;99.90;;;;;;5013838;28;20610;-71
2021/12/05 11:46:51;;;;;;;0.70;0.50;;;9.50;99.90;;;;;;5013623;28;20168;-71
2021/12/05 11:49:25;;;;;;;0.70;0.50;;;9.40;99.90;;;;;;5013652;28;20549;-72
2021/12/05 11:51:57;;;;;;;0.70;0.60;;;9.30;99.90;;;;;;5013995;28;20423;-73
2021/12/05 11:54:32;;;;;;;1.47;0.70;;;8.70;99.90;;;;;;5013702;28;20430;-72
2021/12/05 11:57:11;;;;;;;0.70;0.50;;;8.40;99.90;;;;;;5028360;28;20438;-72
2021/12/05 11:59:38;;;;;;;0.70;0.50;;;8.10;99.90;;;;;;5012550;28;20760;-72
2021/12/05 12:02:15;;;;;;;0.70;0.50;;;8.10;99.90;;;;;;5028605;28;20443;-72
2021/12/05 12:04:46;;;;;;;0.70;0.50;;;7.80;99.90;;;;;;5012240;28;20525;-72
2021/12/05 12:07:20;;;;;;;0.70;0.50;;;7.90;99.90;;;;;;5013338;28;20780;-72
2021/12/05 12:09:48;;;;;;;0.70;0.50;;;7.80;99.90;;;;;;5013294;28;20492;-72
2021/12/05 12:12:15;;;;;;;0.70;0.50;;;8.30;99.90;;;;;;5013207;28;20427;-72
2021/12/05 12:14:40;;;;;;;0.70;0.50;;;8.40;99.90;;;;;;5013788;28;20982;-72
2021/12/05 12:17:12;;;;;;;0.70;0.50;;;8.60;99.90;;;;;;5014178;28;20411;-72
2021/12/05 12:19:38;;;;;;;0.73;0.57;;;8.80;99.90;;;;;;5015784;28;20422;-72
2021/12/05 12:22:07;;;;;;;0.70;0.50;;;9.30;99.90;;;;;;5015943;28;20784;-72
2021/12/05 12:24:33;;;;;;;0.70;0.50;;;9.90;99.90;;;;;;5016073;28;20191;-72
2021/12/05 12:26:59;;;;;;;0.70;0.50;;;10.00;99.90;;;;;;5015265;28;20465;-72
2021/12/05 12:29:26;;;;;;;0.70;0.50;;;9.80;99.90;;;;;;5013520;28;20458;-71
2021/12/05 12:31:53;;;;;;;0.70;0.50;;;9.80;99.90;;;;;;5012900;28;20801;-72
2021/12/05 12:34:21;;;;;;;0.70;0.50;;;9.40;99.90;;;;;;5012886;28;20410;-71
2021/12/05 12:36:50;;;;;;;0.70;0.50;;;8.80;99.90;;;;;;5013582;28;20825;-72
2021/12/05 12:39:15;;;;;;;0.70;0.50;;;8.40;99.90;;;;;;5013305;28;20457;-72
2021/12/05 12:41:42;;;;;;;0.70;0.40;;;8.00;99.90;;;;;;5014065;28;20431;-72
2021/12/05 12:44:08;;;;;;;0.70;0.50;;;7.90;99.90;;;;;;5028416;28;20183;-71
2021/12/05 12:46:41;;;;;;;0.80;0.60;;;7.80;99.90;;;;;;5013088;28;20419;-72
2021/12/05 12:49:15;;;;;;;3.93;0.90;;;7.50;99.90;;;;;;5013043;28;20203;-71
2021/12/05 12:51:43;;;;;;;0.70;0.50;;;7.20;99.90;;;;;;5014045;28;20477;-71
2021/12/05 12:54:18;;;;;;;0.70;0.50;;;7.40;99.90;;;;;;5013390;28;20538;-72
2021/12/05 12:57:04;;;;;;;0.70;0.70;;;7.30;99.90;;;;;;5012726;28;20437;-72
2021/12/05 12:59:34;;;;;;;0.70;0.50;;;7.30;99.90;;;;;;5012345;28;20415;-72
2021/12/05 13:10:05;;;;;;;0.70;0.50;;;7.30;99.90;;;;;;5012135;28;21062;-71
2021/12/05 13:12:34;;;;;;;0.70;0.50;;;7.40;99.90;;;;;;5013999;28;20848;-72
2021/12/05 13:15:04;;;;;;;0.70;0.50;;;7.40;99.90;;;;;;5010980;28;20775;-72
2021/12/05 13:17:44;;;;;;;0.70;0.47;;;7.70;99.90;;;;;;5012289;28;20399;-72
2021/12/05 13:20:15;;;;;;;0.70;0.50;;;7.60;99.90;;;;;;5012208;28;20407;-72
2021/12/05 13:22:59;;;;;;;0.70;0.50;;;7.50;99.90;;;;;;5012328;28;20919;-72
2021/12/05 13:25:26;;;;;;;0.70;0.40;;;7.40;99.90;;;;;;5011979;28;20411;-70
2021/12/05 13:27:52;;;;;;;1.23;1.13;;;7.50;99.90;;;;;;5012119;28;20407;-70
2021/12/05 13:30:32;;;;;;;2.30;1.00;;;7.50;99.90;;;;;;5012213;28;20634;-70
2021/12/05 13:33:18;;;;;;;2.63;2.53;;;7.50;99.90;;;;;;5012230;28;20445;-70
2021/12/05 13:35:45;;;;;;;0.70;0.50;;;7.30;99.90;;;;;;5011906;28;20469;-71
2021/12/05 13:38:34;;;;;;;0.70;0.50;;;7.20;99.90;;;;;;5027179;28;20505;-71
2021/12/05 13:41:09;;;;;;;1.03;0.83;;;7.30;99.90;;;;;;5012029;28;20423;-70
2021/12/05 13:43:35;;;;;;;0.70;0.50;;;7.30;99.90;;;;;;5012090;28;20896;-71
2021/12/05 13:46:03;;;;;;;0.70;0.47;;;7.30;99.90;;;;;;5014033;28;20401;-71
2021/12/05 13:48:29;;;;;;;0.70;0.57;;;7.30;99.90;;;;;;5016249;28;20446;-71
2021/12/05 13:51:04;;;;;;;0.70;0.50;;;7.20;99.90;;;;;;5015900;28;20510;-71
2021/12/05 13:53:47;;;;;;;0.70;0.50;;;7.30;99.90;;;;;;5015968;28;20406;-71
2021/12/05 13:56:20;;;;;;;0.70;0.50;;;7.30;99.90;;;;;;5030647;28;20480;-71
2021/12/05 13:58:48;;;;;;;1.00;0.60;;;7.40;99.90;;;;;;5015955;28;20765;-71
2021/12/05 14:01:19;;;;;;;0.70;0.43;;;7.50;99.90;;;;;;5031009;28;20827;-71
2021/12/05 14:03:56;;;;;;;0.70;0.50;;;7.50;99.90;;;;;;5015691;28;20473;-71
2021/12/05 14:06:42;;;;;;;0.80;0.77;;;7.70;99.90;;;;;;5015452;28;20407;-71
2021/12/05 14:09:27;;;;;;;0.70;0.50;;;8.00;99.90;;;;;;5015567;28;20797;-71
2021/12/05 14:12:10;;;;;;;0.70;0.50;;;8.10;99.90;;;;;;5014301;28;20920;-71
2021/12/05 14:14:39;;;;;;;0.70;0.50;;;8.10;99.90;;;;;;5015536;28;20776;-71
2021/12/05 14:17:37;;;;;;;0.70;0.60;;;8.10;99.90;;;;;;5015289;28;20465;-71
2021/12/05 14:20:12;;;;;;;0.70;0.50;;;8.00;99.90;;;;;;5027516;28;20415;-72
2021/12/05 14:22:39;;;;;;;0.70;0.60;;;7.90;99.90;;;;;;5015641;28;20489;-74
2021/12/05 14:25:21;;;;;;;0.70;0.57;;;7.90;99.90;;;;;;5015391;28;20411;-71
2021/12/05 14:27:50;;;;;;;0.70;0.50;;;7.80;99.90;;;;;;5015523;28;20767;-71
2021/12/05 14:30:19;;;;;;;0.70;0.60;;;7.70;99.90;;;;;;5015312;28;20454;-71
2021/12/05 14:32:46;;;;;;;0.70;0.43;;;7.50;99.90;;;;;;5015453;28;20799;-73
2021/12/05 14:35:19;;;;;;;1.03;0.90;;;7.50;99.90;;;;;;5014958;28;20400;-71
2021/12/05 14:37:47;;;;;;;0.70;0.50;;;7.30;99.90;;;;;;5015068;28;20406;-71
2021/12/05 14:40:16;;;;;;;2.20;0.73;;;7.40;99.90;;;;;;5014955;28;20905;-71
2021/12/05 14:42:45;;;;;;;0.70;0.50;;;7.50;99.90;;;;;;5014870;28;20457;-71
2021/12/05 14:45:18;;;;;;;0.70;0.57;;;7.40;99.90;;;;;;5015096;28;20932;-71
2021/12/05 14:47:46;;;;;;;0.87;0.87;;;7.40;99.90;;;;;;5014917;28;20426;-71
2021/12/05 14:50:18;;;;;;;0.70;0.50;;;7.40;99.90;;;;;;5014846;28;20457;-71
2021/12/05 14:52:46;;;;;;;0.70;0.50;;;7.40;99.90;;;;;;5014895;28;20403;-71
2021/12/05 14:55:17;;;;;;;4.67;0.70;;;7.40;99.90;;;;;;5014409;28;20454;-71
2021/12/05 14:57:50;;;;;;;0.90;0.70;;;7.30;99.90;;;;;;5013527;28;20407;-71
2021/12/05 15:00:32;;;;;;;0.70;0.50;;;7.30;99.90;;;;;;5014814;28;20932;-71
2021/12/05 15:03:06;;;;;;;0.70;0.50;;;7.30;99.90;;;;;;5014718;28;20403;-71
2021/12/05 15:05:33;;;;;;;0.70;0.70;;;7.20;99.90;;;;;;5013076;28;20961;-71
2021/12/05 15:08:02;;;;;;;0.90;0.80;;;7.30;99.90;;;;;;5014476;28;20403;-71
2021/12/05 15:10:28;;;;;;;0.70;0.40;;;7.30;99.90;;;;;;5014407;28;20422;-71
2021/12/05 15:12:54;;;;;;;0.70;0.60;;;7.30;99.90;;;;;;5014450;28;20403;-71
2021/12/05 15:15:22;;;;;;;0.70;0.50;;;7.30;99.90;;;;;;5014230;28;20534;-71
2021/12/05 15:17:47;;;;;;;0.70;0.40;;;7.30;99.90;;;;;;5014391;28;20430;-71
2021/12/05 15:20:17;;;;;;;0.70;0.50;;;7.30;99.90;;;;;;5014304;28;20500;-71
2021/12/05 15:22:53;;;;;;;0.70;0.50;;;7.30;99.90;;;;;;5014361;28;20210;-71
2021/12/05 15:25:22;;;;;;;0.70;0.50;;;7.20;99.90;;;;;;5013786;28;20909;-71
2021/12/05 15:27:48;;;;;;;2.17;1.20;;;7.30;99.90;;;;;;5014014;28;20403;-71
2021/12/05 15:30:23;;;;;;;0.70;0.47;;;7.20;99.90;;;;;;5013968;28;20457;-72
2021/12/05 15:32:56;;;;;;;0.70;0.50;;;7.20;99.90;;;;;;5013954;28;20419;-71
2021/12/05 15:35:23;;;;;;;0.70;0.43;;;7.20;99.90;;;;;;5013760;28;20916;-71
2021/12/05 15:37:59;;;;;;;0.70;0.47;;;7.20;99.90;;;;;;5014014;28;20408;-71
2021/12/05 15:40:27;;;;;;;0.70;0.50;;;7.10;99.90;;;;;;5014262;28;20421;-72
2021/12/05 15:43:00;;;;;;;0.70;0.43;;;7.10;99.90;;;;;;5013900;28;20402;-72
2021/12/05 15:45:25;;;;;;;0.70;0.50;;;7.10;99.90;;;;;;5013610;28;20410;-71
2021/12/05 15:47:51;;;;;;;0.70;0.40;;;7.10;99.90;;;;;;5013773;28;20438;-71
2021/12/05 15:50:22;;;;;;;0.70;0.40;;;7.10;99.90;;;;;;5013552;28;20764;-71
2021/12/05 15:52:50;;;;;;;0.70;0.50;;;7.00;99.90;;;;;;5013661;28;20206;-70
2021/12/05 15:55:35;;;;;;;0.70;0.50;;;7.00;99.90;;;;;;5013226;28;20437;-72
2021/12/05 15:58:09;;;;;;;0.70;0.50;;;6.90;99.90;;;;;;5013545;28;20446;-71
2021/12/05 16:00:48;;;;;;;0.70;0.50;;;6.90;99.90;;;;;;5013436;28;20427;-72
2021/12/05 16:03:23;;;;;;;0.70;0.57;;;6.90;99.90;;;;;;5013471;28;20482;-71
2021/12/05 16:05:55;;;;;;;1.23;1.13;;;6.90;99.90;;;;;;5013141;28;20414;-71
2021/12/05 16:08:21;;;;;;;0.70;0.50;;;6.90;99.90;;;;;;5013029;28;20482;-71
2021/12/05 16:10:50;;;;;;;1.00;0.90;;;6.80;99.90;;;;;;5013293;28;20526;-71
2021/12/05 16:13:24;;;;;;;3.83;1.47;;;6.80;99.90;;;;;;5013265;28;20296;-71
2021/12/05 16:15:52;;;;;;;0.80;0.70;;;6.70;99.90;;;;;;5013055;28;20391;-70
2021/12/05 16:18:29;;;;;;;0.70;0.50;;;6.70;99.90;;;;;;5013223;28;20458;-71
2021/12/05 16:21:01;;;;;;;0.70;0.60;;;6.70;99.90;;;;;;5013044;28;20500;-71
2021/12/05 16:23:29;;;;;;;2.90;1.73;;;6.60;99.90;;;;;;5028606;28;20936;-71
2021/12/05 16:26:06;;;;;;;1.73;1.43;;;6.60;99.90;;;;;;5012988;28;20399;-72
2021/12/05 16:28:42;;;;;;;1.77;1.23;;;6.60;99.90;;;;;;5013031;28;20450;-72
2021/12/05 16:31:12;;;;;;;0.90;0.80;;;6.60;99.90;;;;;;5012981;28;20414;-71
2021/12/05 16:33:38;;;;;;;0.70;0.50;;;6.60;99.90;;;;;;5012942;28;20399;-71
2021/12/05 16:36:06;;;;;;;1.20;0.83;;;6.60;99.90;;;;;;5012700;28;20491;-71
2021/12/05 16:38:38;;;;;;;0.70;0.50;;;6.60;99.90;;;;;;5011499;28;20430;-71
2021/12/05 16:41:17;;;;;;;0.70;0.50;;;6.50;99.90;;;;;;5012825;28;20446;-71
2021/12/05 16:43:54;;;;;;;3.20;2.30;;;6.50;99.90;;;;;;5012709;28;20779;-71
2021/12/05 16:46:31;;;;;;;0.70;0.60;;;6.50;99.90;;;;;;5012528;28;20407;-71
2021/12/05 16:49:00;;;;;;;1.33;0.97;;;6.30;99.90;;;;;;5012648;28;20474;-71
2021/12/05 16:51:35;;;;;;;0.70;0.50;;;6.40;99.90;;;;;;5012599;28;20423;-71
2021/12/05 16:54:12;;;;;;;0.70;0.60;;;6.30;99.90;;;;;;5012582;28;20541;-72
2021/12/05 16:56:49;;;;;;;0.70;0.53;;;6.30;99.90;;;;;;5012344;28;20453;-71
2021/12/05 16:59:25;;;;;;;0.70;0.50;;;6.20;99.90;;;;;;5012548;28;20923;-72
2021/12/05 17:02:27;;;;;;;0.70;0.50;;;6.20;99.90;;;;;;5012429;28;20446;-71
2021/12/05 17:05:13;;;;;;;1.23;1.13;;;6.20;99.90;;;;;;5012276;28;20477;-71
2021/12/05 17:10:35;;;;;;;0.70;0.50;;;6.10;99.90;;;;;;5012508;28;20471;-71
2021/12/05 17:13:11;;;;;;;0.70;0.50;;;6.10;99.90;;;;;;5012320;28;20913;-71
2021/12/05 17:15:50;;;;;;;0.70;0.50;;;6.10;99.90;;;;;;5012009;28;20399;-71
2021/12/05 17:18:19;;;;;;;0.70;0.50;;;6.10;99.90;;;;;;5027501;28;20422;-71
2021/12/05 17:20:49;;;;;;;0.70;0.50;;;6.10;99.90;;;;;;5011493;28;20427;-72
2021/12/05 17:23:22;;;;;;;1.00;0.70;;;6.10;99.90;;;;;;5012264;28;20403;-71
2021/12/05 17:25:53;;;;;;;0.70;0.60;;;6.10;99.90;;;;;;5011904;28;20457;-71
2021/12/05 17:28:33;;;;;;;1.17;1.07;;;6.10;99.90;;;;;;5012067;28;20396;-71
2021/12/05 17:31:02;;;;;;;0.70;0.50;;;6.20;99.90;;;;;;5012138;28;20431;-71
2021/12/05 17:33:43;;;;;;;0.70;0.47;;;6.10;99.90;;;;;;5010805;28;20963;-71
2021/12/05 17:36:37;;;;;;;0.70;0.50;;;6.00;99.90;;;;;;5011906;28;20439;-71
2021/12/05 17:39:13;;;;;;;0.70;0.50;;;6.00;99.90;;;;;;5012291;28;20419;-71
2021/12/05 17:41:40;;;;;;;0.70;0.50;;;6.00;99.90;;;;;;5012239;28;20844;-71
2021/12/05 17:44:07;;;;;;;0.70;0.60;;;6.00;99.90;;;;;;5012039;28;20408;-71
2021/12/05 17:46:35;;;;;;;0.80;0.70;;;6.00;99.90;;;;;;5011799;28;20410;-71
2021/12/05 17:49:02;;;;;;;0.70;0.50;;;6.10;99.90;;;;;;5011830;28;20553;-71
2021/12/05 17:51:36;;;;;;;0.70;0.50;;;6.10;99.90;;;;;;5011896;28;20438;-71
2021/12/05 17:54:02;;;;;;;0.70;0.50;;;6.20;99.90;;;;;;5012008;28;20773;-71
2021/12/05 17:56:51;;;;;;;0.70;0.50;;;6.20;99.90;;;;;;5011578;28;20426;-70
2021/12/05 18:04:41;;;;;;;0.70;0.50;;;6.20;99.90;;;;;;5011923;28;20776;-71
2021/12/05 18:07:08;;;;;;;3.10;2.80;;;6.20;99.90;;;;;;5011547;28;20490;-71
2021/12/05 18:09:34;;;;;;;0.70;0.50;;;6.20;99.90;;;;;;5011742;28;20835;-71
2021/12/05 18:11:59;;;;;;;0.90;0.90;;;6.20;99.90;;;;;;5011658;28;20438;-71
2021/12/05 18:14:25;;;;;;;1.43;0.70;;;6.30;99.90;;;;;;5011812;28;20573;-71
2021/12/05 18:16:51;;;;;;;2.00;1.90;;;6.20;99.90;;;;;;5011664;28;20173;-72
2021/12/05 18:19:19;;;;;;;2.50;2.30;;;6.20;99.90;;;;;;5012025;28;20599;-71
2021/12/05 18:21:48;;;;;;;1.37;1.00;;;6.20;99.90;;;;;;5011724;28;20510;-72
2021/12/05 18:24:17;;;;;;;1.00;0.90;;;6.30;99.90;;;;;;5010324;28;20453;-71
2021/12/05 18:26:44;;;;;;;0.93;0.93;;;6.20;99.90;;;;;;5011417;28;20475;-71
2021/12/05 18:29:12;;;;;;;8.53;1.43;;;6.20;99.90;;;;;;5011589;28;20494;-71